Aegaeo — SXYY — position and weather

sailwx.info

Track history (hours):
 
Tides and Currents Weather Stations Pressure Air Temp Water Temp Dewpoint Dewpoint Depression Visibility Wind Speed Wind Dir Waves Ship Positions

Oceanographic research ship Aegaeo (Greece)

Detailed information on ship capabilities available from University of Delaware's Ocean Information Center.

Last reported at 2018-Jan-24 08:10 UTC. Time now 2018-Feb-19 09:58 UTC.
Position N 37°56' E 023°37'.
Warning: this ship's position is 26 days out of date.

Length 61.5 m; beam 9.6 m; draft 2.9 m.

Type: Ship (hazmat cat A). MMSI: 237529000.

Date/timePositionNaut miles runAvg speedWind from/ knotsBaromVisibWave heightAir tempDewpointWater temp
2018-Jan-24 08:10N 37°56' E 023°37'0 0.0
2018-Jan-24 08:01N 37°56' E 023°37'2 3.4
2018-Jan-24 07:30N 37°55' E 023°38'6 1.1
2018-Jan-24 02:33N 37°52' E 023°44'0 0.8
2018-Jan-24 02:31N 37°52' E 023°44'0 0.0
2018-Jan-24 02:01N 37°52' E 023°44'1 1.1
2018-Jan-24 01:31N 37°51' E 023°43'2 4.3
2018-Jan-24 01:01N 37°53' E 023°41'1 2.8
2018-Jan-24 00:30N 37°54' E 023°42'1 1.6
2018-Jan-24 00:01N 37°53' E 023°41'3 5.0
2018-Jan-23 23:31N 37°52' E 023°38'0 0.3
2018-Jan-23 23:00N 37°52' E 023°38'0 0.7
2018-Jan-23 22:30N 37°53' E 023°38'1 2.7
2018-Jan-23 22:00N 37°54' E 023°39'2 4.2
2018-Jan-23 21:30N 37°55' E 023°40'2 4.1
2018-Jan-23 21:01N 37°55' E 023°38'2 4.0
2018-Jan-23 20:30N 37°55' E 023°35'2 4.3
2018-Jan-23 20:00N 37°53' E 023°35'1 1.2
2018-Jan-23 19:31N 37°52' E 023°34'5 9.6
2018-Jan-23 19:00N 37°51' E 023°29'1 2.5
2018-Jan-23 18:31N 37°50' E 023°27'2 3.7
2018-Jan-23 18:01N 37°51' E 023°29'3 6.3
2018-Jan-23 17:30N 37°53' E 023°32'0 0.5
2018-Jan-23 17:01N 37°53' E 023°33'2 3.9
2018-Jan-23 16:31N 37°55' E 023°33'1 1.7
2018-Jan-23 16:01N 37°56' E 023°34'1 1.5
2018-Jan-23 15:30N 37°56' E 023°33'2 3.2
2018-Jan-23 15:00N 37°55' E 023°35'0 1.0
2018-Jan-23 14:31N 37°55' E 023°35'0 0.8
2018-Jan-23 14:00N 37°55' E 023°35'4 8.4
2018-Jan-23 13:30N 37°59' E 023°33'3 6.0
2018-Jan-23 13:00N 38°02' E 023°31'4 7.4
2018-Jan-23 12:31N 38°00' E 023°27'0 0.4
2018-Jan-23 12:01N 38°00' E 023°27'0 0.2
2018-Jan-23 11:31N 38°00' E 023°27'510.1
2018-Jan-23 11:00N 38°01' E 023°33'1 2.3
2018-Jan-23 10:31N 38°02' E 023°35'0 0.5
2018-Jan-23 10:00N 38°02' E 023°34'1 2.1
2018-Jan-23 09:30N 38°01' E 023°33'1 1.8
2018-Jan-23 09:00N 38°00' E 023°33'4 7.0
2018-Jan-23 08:30N 37°57' E 023°35'0 0.1
2018-Jan-23 08:00N 37°57' E 023°35'2 3.8
2018-Jan-23 07:30N 37°56' E 023°37'0 0.0
2018-Jan-23 07:01N 37°56' E 023°37'0 0.0
2018-Jan-23 06:30N 37°56' E 023°37'0 0.0
2018-Jan-23 06:00N 37°56' E 023°37'0 0.0
2018-Jan-22 12:28N 37°56' E 023°37'0 0.0
2018-Jan-22 12:00N 37°56' E 023°37'  
2018-Jan-19 11:09N 37°56' E 023°37'0 0.0
2018-Jan-19 11:00N 37°56' E 023°37'  
Track history (hours):
 
Tides and Currents Weather Stations Pressure Air Temp Water Temp Dewpoint Dewpoint Depression Visibility Wind Speed Wind Dir Waves Ship Positions

Oceanographic research ship Aegaeo (Greece)

Detailed information on ship capabilities available from University of Delaware's Ocean Information Center.

Last reported at 2018-Jan-24 08:10 UTC. Time now 2018-Feb-19 09:58 UTC.
Position N 37°56' E 023°37'.
Warning: this ship's position is 26 days out of date.

Length 61.5 m; beam 9.6 m; draft 2.9 m.

Type: Ship (hazmat cat A). MMSI: 237529000.

Date/timePositionNaut miles runAvg speedWind from/ knotsBaromVisibWave heightAir tempDewpointWater temp
2018-Jan-24 08:10N 37°56' E 023°37'0 0.0
2018-Jan-24 08:01N 37°56' E 023°37'2 3.4
2018-Jan-24 07:30N 37°55' E 023°38'6 1.1
2018-Jan-24 02:33N 37°52' E 023°44'0 0.8
2018-Jan-24 02:31N 37°52' E 023°44'0 0.0
2018-Jan-24 02:01N 37°52' E 023°44'1 1.1
2018-Jan-24 01:31N 37°51' E 023°43'2 4.3
2018-Jan-24 01:01N 37°53' E 023°41'1 2.8
2018-Jan-24 00:30N 37°54' E 023°42'1 1.6
2018-Jan-24 00:01N 37°53' E 023°41'3 5.0
2018-Jan-23 23:31N 37°52' E 023°38'0 0.3
2018-Jan-23 23:00N 37°52' E 023°38'0 0.7
2018-Jan-23 22:30N 37°53' E 023°38'1 2.7
2018-Jan-23 22:00N 37°54' E 023°39'2 4.2
2018-Jan-23 21:30N 37°55' E 023°40'2 4.1
2018-Jan-23 21:01N 37°55' E 023°38'2 4.0
2018-Jan-23 20:30N 37°55' E 023°35'2 4.3
2018-Jan-23 20:00N 37°53' E 023°35'1 1.2
2018-Jan-23 19:31N 37°52' E 023°34'5 9.6
2018-Jan-23 19:00N 37°51' E 023°29'1 2.5
2018-Jan-23 18:31N 37°50' E 023°27'2 3.7
2018-Jan-23 18:01N 37°51' E 023°29'3 6.3
2018-Jan-23 17:30N 37°53' E 023°32'0 0.5
2018-Jan-23 17:01N 37°53' E 023°33'2 3.9
2018-Jan-23 16:31N 37°55' E 023°33'1 1.7
2018-Jan-23 16:01N 37°56' E 023°34'1 1.5
2018-Jan-23 15:30N 37°56' E 023°33'2 3.2
2018-Jan-23 15:00N 37°55' E 023°35'0 1.0
2018-Jan-23 14:31N 37°55' E 023°35'0 0.8
2018-Jan-23 14:00N 37°55' E 023°35'4 8.4
2018-Jan-23 13:30N 37°59' E 023°33'3 6.0
2018-Jan-23 13:00N 38°02' E 023°31'4 7.4
2018-Jan-23 12:31N 38°00' E 023°27'0 0.4
2018-Jan-23 12:01N 38°00' E 023°27'0 0.2
2018-Jan-23 11:31N 38°00' E 023°27'510.1
2018-Jan-23 11:00N 38°01' E 023°33'1 2.3
2018-Jan-23 10:31N 38°02' E 023°35'0 0.5
2018-Jan-23 10:00N 38°02' E 023°34'1 2.1
2018-Jan-23 09:30N 38°01' E 023°33'1 1.8
2018-Jan-23 09:00N 38°00' E 023°33'4 7.0
2018-Jan-23 08:30N 37°57' E 023°35'0 0.1
2018-Jan-23 08:00N 37°57' E 023°35'2 3.8
2018-Jan-23 07:30N 37°56' E 023°37'0 0.0
2018-Jan-23 07:01N 37°56' E 023°37'0 0.0
2018-Jan-23 06:30N 37°56' E 023°37'0 0.0
2018-Jan-23 06:00N 37°56' E 023°37'0 0.0
2018-Jan-22 12:28N 37°56' E 023°37'0 0.0
2018-Jan-22 12:00N 37°56' E 023°37'  
2018-Jan-19 11:09N 37°56' E 023°37'0 0.0
2018-Jan-19 11:00N 37°56' E 023°37'  

Dump ship's entire track history